LVBHL SADF-SADL
Flight info
| Callsign | LVBHL |
|---|---|
| Flight time | 0h 20m |
| Altitude | 3000 |
| Route | PAL/N0172F070 DCT ILM DCT PTA |
| Aircraft | PA34/L-SDFGRY/S |
Departure
| Time | 2026-04-27 22:12 |
|---|---|
| Airport | San Fernando Airport (SADF) |
Arrival
| Time | 2026-04-27 22:32 |
|---|---|
| Airport | La Plata Airport (SADL) |
| Time | Latitude | Longitude | Altitude | Speed | Heading |
|---|---|---|---|---|---|
| 2026-04-27 22:00 | -34.45476 | -58.58237 | 21 ft | 0 kts | 328° |
| 2026-04-27 22:08 | -34.45443 | -58.58240 | 21 ft | 9 kts | 65° |
| 2026-04-27 22:08 | -34.45410 | -58.58163 | 21 ft | 12 kts | 59° |
| 2026-04-27 22:08 | -34.45368 | -58.58065 | 21 ft | 14 kts | 62° |
| 2026-04-27 22:09 | -34.45302 | -58.57989 | 21 ft | 15 kts | 327° |
| 2026-04-27 22:09 | -34.45211 | -58.58056 | 21 ft | 16 kts | 328° |
| 2026-04-27 22:09 | -34.45112 | -58.58126 | 21 ft | 17 kts | 329° |
| 2026-04-27 22:09 | -34.45009 | -58.58200 | 21 ft | 18 kts | 330° |
| 2026-04-27 22:10 | -34.44902 | -58.58278 | 21 ft | 20 kts | 324° |
| 2026-04-27 22:10 | -34.44844 | -58.58365 | 21 ft | 12 kts | 251° |
| 2026-04-27 22:10 | -34.44851 | -58.58377 | 21 ft | 0 kts | 224° |
| 2026-04-27 22:11 | -34.45121 | -58.58695 | 34 ft | 93 kts | 226° |
| 2026-04-27 22:12 | -34.45478 | -58.59107 | 164 ft | 117 kts | 226° |
| 2026-04-27 22:12 | -34.46102 | -58.59867 | 438 ft | 137 kts | 227° |
| 2026-04-27 22:12 | -34.46817 | -58.60684 | 698 ft | 145 kts | 224° |
| 2026-04-27 22:12 | -34.47757 | -58.61150 | 923 ft | 155 kts | 186° |
| 2026-04-27 22:13 | -34.48832 | -58.61078 | 1193 ft | 152 kts | 181° |
| 2026-04-27 22:13 | -34.49857 | -58.61111 | 1570 ft | 144 kts | 188° |
| 2026-04-27 22:13 | -34.50846 | -58.61155 | 1958 ft | 141 kts | 188° |
| 2026-04-27 22:13 | -34.51822 | -58.61183 | 2338 ft | 139 kts | 187° |
| 2026-04-27 22:14 | -34.52774 | -58.61205 | 2716 ft | 137 kts | 187° |
| 2026-04-27 22:14 | -34.53726 | -58.61120 | 3059 ft | 143 kts | 172° |
| 2026-04-27 22:14 | -34.54626 | -58.60343 | 2996 ft | 172 kts | 137° |
| 2026-04-27 22:14 | -34.55389 | -58.59198 | 3008 ft | 176 kts | 133° |
| 2026-04-27 22:15 | -34.56120 | -58.57999 | 3009 ft | 176 kts | 132° |
| 2026-04-27 22:15 | -34.56841 | -58.56792 | 3009 ft | 177 kts | 132° |
| 2026-04-27 22:15 | -34.57569 | -58.55577 | 3008 ft | 178 kts | 132° |
| 2026-04-27 22:15 | -34.58297 | -58.54365 | 3011 ft | 178 kts | 132° |
| 2026-04-27 22:16 | -34.59030 | -58.53145 | 3008 ft | 180 kts | 132° |
| 2026-04-27 22:16 | -34.59767 | -58.51915 | 3008 ft | 180 kts | 132° |
| 2026-04-27 22:16 | -34.60503 | -58.50690 | 3010 ft | 179 kts | 133° |
| 2026-04-27 22:16 | -34.61237 | -58.49464 | 3007 ft | 179 kts | 133° |
| 2026-04-27 22:17 | -34.61967 | -58.48248 | 3006 ft | 177 kts | 132° |
| 2026-04-27 22:17 | -34.62692 | -58.47038 | 3006 ft | 177 kts | 132° |
| 2026-04-27 22:17 | -34.63412 | -58.45837 | 3006 ft | 178 kts | 132° |
| 2026-04-27 22:17 | -34.64140 | -58.44621 | 3006 ft | 178 kts | 132° |
| 2026-04-27 22:18 | -34.64868 | -58.43406 | 3007 ft | 178 kts | 133° |
| 2026-04-27 22:18 | -34.65594 | -58.42194 | 3008 ft | 177 kts | 133° |
| 2026-04-27 22:18 | -34.66322 | -58.40977 | 3008 ft | 179 kts | 132° |
| 2026-04-27 22:18 | -34.67053 | -58.39755 | 3008 ft | 179 kts | 132° |
| 2026-04-27 22:19 | -34.67787 | -58.38527 | 3006 ft | 179 kts | 132° |
| 2026-04-27 22:19 | -34.68518 | -58.37303 | 3006 ft | 178 kts | 132° |
| 2026-04-27 22:19 | -34.69246 | -58.36086 | 3009 ft | 178 kts | 133° |
| 2026-04-27 22:19 | -34.69973 | -58.34868 | 3008 ft | 178 kts | 133° |
| 2026-04-27 22:20 | -34.70691 | -58.33668 | 3007 ft | 178 kts | 133° |
| 2026-04-27 22:20 | -34.71420 | -58.32447 | 3004 ft | 179 kts | 133° |
| 2026-04-27 22:20 | -34.72150 | -58.31222 | 3007 ft | 179 kts | 133° |
| 2026-04-27 22:20 | -34.72888 | -58.29985 | 3003 ft | 179 kts | 133° |
| 2026-04-27 22:21 | -34.73614 | -58.28768 | 3003 ft | 180 kts | 133° |
| 2026-04-27 22:21 | -34.74347 | -58.27539 | 3003 ft | 180 kts | 133° |
| 2026-04-27 22:21 | -34.75083 | -58.26304 | 3000 ft | 181 kts | 133° |
| 2026-04-27 22:21 | -34.75820 | -58.25067 | 3001 ft | 181 kts | 133° |
| 2026-04-27 22:22 | -34.76558 | -58.23827 | 3004 ft | 181 kts | 133° |
| 2026-04-27 22:22 | -34.77300 | -58.22581 | 3001 ft | 182 kts | 133° |
| 2026-04-27 22:22 | -34.78043 | -58.21332 | 2997 ft | 182 kts | 133° |
| 2026-04-27 22:22 | -34.78783 | -58.20087 | 3000 ft | 181 kts | 133° |
| 2026-04-27 22:23 | -34.79520 | -58.18847 | 3000 ft | 181 kts | 134° |
| 2026-04-27 22:23 | -34.80256 | -58.17611 | 3000 ft | 180 kts | 133° |
| 2026-04-27 22:23 | -34.80992 | -58.16373 | 3002 ft | 180 kts | 133° |
| 2026-04-27 22:23 | -34.81728 | -58.15134 | 3000 ft | 180 kts | 133° |
| 2026-04-27 22:24 | -34.82452 | -58.13914 | 2997 ft | 180 kts | 133° |
| 2026-04-27 22:24 | -34.83190 | -58.12672 | 3000 ft | 181 kts | 133° |
| 2026-04-27 22:24 | -34.83925 | -58.11434 | 3003 ft | 180 kts | 133° |
| 2026-04-27 22:24 | -34.84651 | -58.10208 | 3001 ft | 180 kts | 133° |
| 2026-04-27 22:25 | -34.85385 | -58.08969 | 3004 ft | 180 kts | 133° |
| 2026-04-27 22:25 | -34.86120 | -58.07729 | 3003 ft | 180 kts | 133° |
| 2026-04-27 22:25 | -34.86864 | -58.06476 | 2887 ft | 184 kts | 133° |
| 2026-04-27 22:25 | -34.87620 | -58.05198 | 2759 ft | 187 kts | 133° |
| 2026-04-27 22:26 | -34.88377 | -58.03921 | 2635 ft | 188 kts | 133° |
| 2026-04-27 22:26 | -34.89150 | -58.02615 | 2504 ft | 188 kts | 133° |
| 2026-04-27 22:26 | -34.89904 | -58.01338 | 2384 ft | 189 kts | 133° |
| 2026-04-27 22:26 | -34.90674 | -58.00039 | 2256 ft | 189 kts | 133° |
| 2026-04-27 22:27 | -34.91441 | -57.98739 | 2124 ft | 188 kts | 133° |
| 2026-04-27 22:27 | -34.92201 | -57.97456 | 1998 ft | 186 kts | 132° |
| 2026-04-27 22:27 | -34.92959 | -57.96173 | 1872 ft | 186 kts | 131° |
| 2026-04-27 22:27 | -34.93712 | -57.94896 | 1717 ft | 181 kts | 131° |
| 2026-04-27 22:28 | -34.94421 | -57.93687 | 1528 ft | 170 kts | 131° |
| 2026-04-27 22:28 | -34.95091 | -57.92553 | 1408 ft | 158 kts | 130° |
| 2026-04-27 22:28 | -34.95708 | -57.91504 | 1409 ft | 148 kts | 132° |
| 2026-04-27 22:28 | -34.96297 | -57.90483 | 1412 ft | 147 kts | 128° |
| 2026-04-27 22:29 | -34.96766 | -57.89340 | 1293 ft | 152 kts | 121° |
| 2026-04-27 22:29 | -34.97193 | -57.88160 | 1120 ft | 153 kts | 112° |
| 2026-04-27 22:29 | -34.97006 | -57.86954 | 1126 ft | 144 kts | 52° |
| 2026-04-27 22:29 | -34.96268 | -57.86244 | 1142 ft | 131 kts | 19° |
| 2026-04-27 22:30 | -34.95518 | -57.85835 | 1133 ft | 105 kts | 12° |
| 2026-04-27 22:30 | -34.94883 | -57.85788 | 1117 ft | 84 kts | 316° |
| 2026-04-27 22:30 | -34.94712 | -57.86333 | 1118 ft | 67 kts | 275° |
| 2026-04-27 22:30 | -34.94617 | -57.86916 | 962 ft | 75 kts | 274° |
| 2026-04-27 22:31 | -34.94509 | -57.87492 | 744 ft | 66 kts | 276° |
| 2026-04-27 22:31 | -34.94489 | -57.88077 | 509 ft | 75 kts | 262° |
| 2026-04-27 22:31 | -34.94796 | -57.88592 | 480 ft | 86 kts | 213° |
| 2026-04-27 22:31 | -34.95360 | -57.88835 | 348 ft | 85 kts | 196° |
| 2026-04-27 22:32 | -34.95918 | -57.88996 | 207 ft | 82 kts | 195° |
| 2026-04-27 22:32 | -34.96456 | -57.89159 | 66 ft | 73 kts | 195° |
| 2026-04-27 22:32 | -34.96800 | -57.89285 | 58 ft | 17 kts | 175° |
| 2026-04-27 22:32 | -34.96695 | -57.89235 | 62 ft | 35 kts | 13° |
| 2026-04-27 22:33 | -34.96437 | -57.89157 | 59 ft | 41 kts | 13° |
| 2026-04-27 22:33 | -34.96216 | -57.89086 | 53 ft | 19 kts | 31° |
| 2026-04-27 22:33 | -34.96197 | -57.88959 | 57 ft | 15 kts | 107° |
| 2026-04-27 22:33 | -34.96232 | -57.88851 | 59 ft | 13 kts | 122° |
| 2026-04-27 22:34 | -34.96283 | -57.88776 | 57 ft | 10 kts | 129° |
| 2026-04-27 22:34 | -34.96321 | -57.88721 | 59 ft | 7 kts | 130° |
| 2026-04-27 22:34 | -34.96348 | -57.88681 | 58 ft | 6 kts | 138° |
| 2026-04-27 22:34 | -34.96387 | -57.88630 | 57 ft | 8 kts | 131° |
| 2026-04-27 22:35 | -34.96385 | -57.88601 | 59 ft | 0 kts | 42° |